createdAt,value
2018-12-13T00:00:17.936Z,20.32
2018-12-13T00:06:12.944Z,22.03
2018-12-13T00:12:07.924Z,23.5
2018-12-13T00:18:02.926Z,39.07
2018-12-13T00:23:57.953Z,23.35
2018-12-13T00:29:52.926Z,21.75
2018-12-13T00:35:47.933Z,19.63
2018-12-13T00:41:42.933Z,20.14
2018-12-13T00:47:37.964Z,23.91
2018-12-13T00:53:32.976Z,17.24
2018-12-13T00:59:27.913Z,19.28
2018-12-13T01:05:22.946Z,18.22
2018-12-13T01:11:17.954Z,17.94
2018-12-13T01:17:12.936Z,20.17
2018-12-13T01:23:07.968Z,21.53
2018-12-13T01:29:02.984Z,20.71
2018-12-13T01:34:57.989Z,21.18
2018-12-13T01:40:52.986Z,24.14
2018-12-13T01:46:47.978Z,20.57
2018-12-13T01:52:42.973Z,21.36
2018-12-13T01:58:37.966Z,19.51
2018-12-13T02:04:33.006Z,21.28
2018-12-13T02:10:27.951Z,23.2
2018-12-13T02:16:22.950Z,21.65
2018-12-13T02:22:17.957Z,23
2018-12-13T02:28:12.951Z,20.76
2018-12-13T02:34:07.963Z,20.68
2018-12-13T02:40:02.986Z,15.95
2018-12-13T02:45:57.978Z,17.52
2018-12-13T02:51:53.004Z,19.54
2018-12-13T02:57:47.983Z,17.87
2018-12-13T03:03:43.050Z,18.72
2018-12-13T03:09:37.985Z,14.68
2018-12-13T03:15:33.016Z,16.64
2018-12-13T03:21:27.989Z,17.35
2018-12-13T03:27:22.989Z,11.86
2018-12-13T03:33:17.973Z,18.55
2018-12-13T03:39:12.989Z,11.91
2018-12-13T03:45:07.991Z,6.86
2018-12-13T03:51:02.998Z,2.39
2018-12-13T03:56:58.010Z,1.25
2018-12-13T04:02:52.976Z,1.02
2018-12-13T04:08:48.058Z,1.7
2018-12-13T04:14:43.012Z,2
2018-12-13T04:20:38.007Z,1.73
2018-12-13T04:26:33.057Z,1.36
2018-12-13T04:32:27.986Z,2.23
2018-12-13T04:38:22.987Z,3.76
2018-12-13T04:44:18.068Z,5.16
2018-12-13T04:50:13.102Z,5.69
2018-12-13T04:56:08.012Z,5.37
2018-12-13T05:02:03.021Z,7.48
2018-12-13T05:07:58.021Z,9.32
2018-12-13T05:13:53.027Z,12.47
2018-12-13T05:19:48.025Z,12.86
2018-12-13T05:25:43.003Z,13.4
2018-12-13T05:31:38.060Z,13.05
2018-12-13T05:37:33.004Z,10.79
2018-12-13T05:43:28.037Z,10.72
2018-12-13T05:49:23.000Z,11.07
2018-12-13T05:55:18.053Z,10.9
2018-12-13T06:01:13.074Z,12.19
2018-12-13T06:07:08.032Z,11.71
2018-12-13T06:13:03.014Z,12.68
2018-12-13T06:18:58.025Z,14.72
2018-12-13T06:24:53.054Z,12.12
2018-12-13T06:30:48.041Z,16.65
2018-12-13T06:36:43.087Z,15.3
2018-12-13T06:42:38.030Z,13.58
2018-12-13T06:48:33.010Z,12.34
2018-12-13T06:54:28.016Z,12.59
2018-12-13T07:00:23.167Z,12.62
2018-12-13T07:06:18.039Z,11.87
2018-12-13T07:12:13.053Z,12.63
2018-12-13T07:18:08.120Z,12.08
2018-12-13T07:24:03.061Z,11.43
2018-12-13T07:29:58.024Z,12.18
2018-12-13T07:35:53.047Z,11.35
2018-12-13T07:41:48.080Z,10.72
2018-12-13T07:47:43.049Z,10.65
2018-12-13T07:53:38.060Z,10.63
2018-12-13T07:59:33.057Z,10.06
2018-12-13T08:05:28.047Z,8.36
2018-12-13T08:11:23.047Z,9.98
2018-12-13T08:17:18.045Z,9.99
2018-12-13T08:23:13.061Z,9.99
2018-12-13T08:29:08.120Z,9.87
2018-12-13T08:35:03.107Z,8.8
2018-12-13T08:40:58.065Z,8.77
2018-12-13T08:46:53.068Z,8.05
2018-12-13T08:52:48.072Z,7.95
2018-12-13T08:58:43.135Z,8.59
2018-12-13T09:04:38.047Z,9.3
2018-12-13T09:10:33.059Z,9.58
2018-12-13T09:16:31.398Z,10.61
2018-12-13T09:22:23.098Z,8.32
2018-12-13T09:28:18.121Z,9.06
2018-12-13T09:34:13.052Z,9.12
2018-12-13T09:40:08.057Z,9.3
2018-12-13T09:46:03.065Z,9.8
2018-12-13T09:51:58.150Z,9.39
2018-12-13T09:57:53.112Z,3.18
2018-12-13T10:03:48.108Z,3.38
2018-12-13T10:09:43.109Z,3.15
2018-12-13T10:15:38.103Z,3.8
2018-12-13T10:21:33.107Z,4.58
2018-12-13T10:27:28.099Z,3.57
2018-12-13T10:33:23.062Z,4.45
2018-12-13T10:39:18.109Z,9.14
2018-12-13T10:45:13.112Z,5.43
2018-12-13T10:51:08.112Z,5
2018-12-13T10:57:03.080Z,4.79
2018-12-13T11:02:58.203Z,4.21
2018-12-13T11:08:59.199Z,5.1
2018-12-13T11:14:48.096Z,3.67
2018-12-13T11:20:43.129Z,4.22
2018-12-13T11:26:38.123Z,3.99
2018-12-13T11:32:33.112Z,3.94
2018-12-13T11:38:28.084Z,4.81
2018-12-13T11:44:23.096Z,4.33
2018-12-13T11:50:18.110Z,3.41
2018-12-13T11:56:13.098Z,3.44
2018-12-13T12:02:08.107Z,3.82
2018-12-13T12:08:03.106Z,3.85
2018-12-13T12:13:58.094Z,2.96
2018-12-13T12:19:53.127Z,2.55
2018-12-13T12:25:48.171Z,3.02
2018-12-13T12:31:43.135Z,2.46
2018-12-13T12:37:38.127Z,2.75
2018-12-13T12:43:33.139Z,2.62
2018-12-13T12:49:28.146Z,1.94
2018-12-13T12:55:23.111Z,2
2018-12-13T13:01:18.128Z,1.89
2018-12-13T13:07:13.156Z,1.39
2018-12-13T13:13:08.195Z,1.86
2018-12-13T13:19:03.149Z,2.02
2018-12-13T13:24:58.124Z,2.42
2018-12-13T13:30:53.122Z,2.77
2018-12-13T13:36:48.109Z,1.88
2018-12-13T13:42:43.126Z,2.03
2018-12-13T13:48:38.135Z,1.75
2018-12-13T13:54:33.117Z,2.01
2018-12-13T14:00:28.131Z,2.1
2018-12-13T14:06:23.147Z,1.52
2018-12-13T14:12:18.150Z,2.13
2018-12-13T14:18:13.125Z,1.55
2018-12-13T14:24:08.127Z,10.65
2018-12-13T14:30:03.182Z,4.71
2018-12-13T14:35:58.187Z,3.92
2018-12-13T14:41:53.163Z,3.35
2018-12-13T14:47:48.146Z,3.2
2018-12-13T14:53:43.173Z,4.77
2018-12-13T14:59:38.131Z,10.09
2018-12-13T15:05:33.152Z,8.25
2018-12-13T15:11:28.151Z,3.63
2018-12-13T15:17:23.191Z,2.34
2018-12-13T15:23:18.144Z,3.85
2018-12-13T15:29:13.136Z,1.9
2018-12-13T15:35:08.161Z,1.91
2018-12-13T15:41:03.148Z,1.97
2018-12-13T15:46:58.143Z,2.3
2018-12-13T15:52:53.171Z,1.45
2018-12-13T15:58:48.184Z,1.46
2018-12-13T16:04:44.352Z,1.26
2018-12-13T16:10:39.468Z,1.51
2018-12-13T16:16:33.188Z,3.11
2018-12-13T16:22:28.150Z,3.49
2018-12-13T16:28:23.209Z,12.26
2018-12-13T16:34:18.168Z,2.41
2018-12-13T16:40:13.145Z,1.84
2018-12-13T16:46:08.163Z,2.4
2018-12-13T16:52:03.163Z,10.26
2018-12-13T16:57:58.248Z,7.98
2018-12-13T17:03:53.201Z,6.08
2018-12-13T17:09:48.159Z,5.26
2018-12-13T17:15:43.191Z,3.53
2018-12-13T17:21:38.206Z,11.07
2018-12-13T17:27:33.191Z,3.19
2018-12-13T17:33:28.177Z,5.29
2018-12-13T17:39:23.168Z,2.63
2018-12-13T17:45:18.222Z,4.5
2018-12-13T17:51:13.181Z,2.8
2018-12-13T17:57:08.188Z,2.45
2018-12-13T18:03:03.170Z,5.25
2018-12-13T18:08:58.183Z,3.51
2018-12-13T18:14:53.201Z,2.97
2018-12-13T18:20:48.201Z,2.99
2018-12-13T18:26:43.215Z,2.87
2018-12-13T18:32:38.197Z,4.51
2018-12-13T18:38:33.201Z,5.27
2018-12-13T18:44:28.201Z,3.87
2018-12-13T18:50:23.267Z,8.24
2018-12-13T18:56:18.181Z,5.85
2018-12-13T19:02:13.204Z,3.47
2018-12-13T19:08:08.204Z,4.4
2018-12-13T19:14:03.266Z,3.58
2018-12-13T19:19:58.259Z,5.22
2018-12-13T19:25:53.195Z,5.44
2018-12-13T19:31:48.196Z,3.47
2018-12-13T19:37:43.263Z,3.75
2018-12-13T19:43:38.215Z,4.24
2018-12-13T19:49:33.268Z,4.34
2018-12-13T19:55:28.255Z,3.39
2018-12-13T20:01:23.250Z,2.92
2018-12-13T20:07:18.268Z,4.51
2018-12-13T20:13:13.211Z,3.68
2018-12-13T20:19:08.210Z,2.51
2018-12-13T20:25:03.258Z,3.59
2018-12-13T20:30:58.268Z,2.73
2018-12-13T20:36:53.210Z,2.19
2018-12-13T20:42:48.210Z,5.97
2018-12-13T20:48:43.223Z,3.98
2018-12-13T20:54:38.213Z,1.93
2018-12-13T21:00:33.233Z,5.13
2018-12-13T21:06:28.213Z,2.72
2018-12-13T21:12:23.229Z,2.41
2018-12-13T21:18:18.220Z,2.61
2018-12-13T21:24:13.267Z,4.45
2018-12-13T21:30:08.304Z,3.28
2018-12-13T21:36:03.245Z,12.11
2018-12-13T21:41:58.236Z,10.22
2018-12-13T21:47:53.706Z,6.88
2018-12-13T21:53:48.286Z,4.59
2018-12-13T21:59:43.221Z,7.03
2018-12-13T22:05:38.330Z,3.02
2018-12-13T22:11:33.253Z,3.31
2018-12-13T22:17:28.319Z,3.3
2018-12-13T22:23:23.237Z,5.47
2018-12-13T22:29:18.263Z,3.28
2018-12-13T22:35:13.267Z,5.62
2018-12-13T22:41:08.264Z,3.47
2018-12-13T22:47:03.262Z,2.56
2018-12-13T22:52:58.267Z,3.82
2018-12-13T22:58:53.247Z,2.83
2018-12-13T23:04:48.282Z,2.23
2018-12-13T23:10:43.258Z,2.5
2018-12-13T23:16:38.340Z,3.5
2018-12-13T23:22:33.261Z,1.94
2018-12-13T23:28:28.270Z,4.98
2018-12-13T23:34:23.309Z,4.85
2018-12-13T23:40:18.273Z,3.5
2018-12-13T23:46:13.253Z,3.35
2018-12-13T23:52:08.291Z,3.01
2018-12-13T23:58:03.279Z,3.27
